Time;durP1;ratioP1;P1;durP2;ratioP2;P2;SDS_P1;SDS_P2;PMS_P1;PMS_P2;Temp;Humidity;BMP_temperature;BMP_pressure;BME280_temperature;BME280_humidity;BME280_pressure;Samples;Min_cycle;Max_cycle;Signal;HPM_P1;HPM_P2
2022/03/10 00:02:02;;;;;;;24.92;13.43;;;2.90;80.20;;;;;;5062516;28;20163;-53
2022/03/10 00:04:28;;;;;;;27.70;14.25;;;2.90;80.30;;;;;;5059767;28;20389;-53
2022/03/10 00:06:54;;;;;;;23.25;14.32;;;3.00;80.30;;;;;;5051464;28;20037;-52
2022/03/10 00:09:20;;;;;;;23.73;13.35;;;3.00;80.50;;;;;;5061617;28;20038;-53
2022/03/10 00:11:47;;;;;;;24.65;14.30;;;3.00;80.40;;;;;;5042231;28;20048;-53
2022/03/10 00:14:13;;;;;;;26.95;14.05;;;3.00;80.30;;;;;;5051723;28;20041;-54
2022/03/10 00:16:39;;;;;;;23.08;13.90;;;3.00;80.70;;;;;;5067367;28;20044;-52
2022/03/10 00:19:05;;;;;;;26.65;14.13;;;3.00;80.10;;;;;;5072098;28;20036;-53
2022/03/10 00:21:31;;;;;;;29.42;13.95;;;3.00;79.60;;;;;;5071411;28;20041;-54
2022/03/10 00:23:56;;;;;;;29.23;14.65;;;3.00;79.30;;;;;;5053505;28;20493;-52
2022/03/10 00:26:22;;;;;;;22.60;13.48;;;3.10;78.50;;;;;;5067214;28;20040;-54
2022/03/10 00:28:48;;;;;;;23.70;12.77;;;3.10;78.60;;;;;;5045393;28;20033;-54
2022/03/10 00:31:13;;;;;;;23.98;13.88;;;3.10;77.40;;;;;;5070933;28;20044;-52
2022/03/10 00:33:39;;;;;;;23.85;14.02;;;3.20;77.70;;;;;;5071583;28;20071;-53
2022/03/10 00:36:06;;;;;;;24.52;14.13;;;3.10;78.00;;;;;;5070873;28;20412;-52
2022/03/10 00:38:32;;;;;;;23.75;13.70;;;3.00;78.00;;;;;;5069612;28;20091;-53
2022/03/10 00:40:59;;;;;;;23.80;13.32;;;3.00;77.90;;;;;;5064338;28;20505;-54
2022/03/10 00:43:25;;;;;;;23.40;14.02;;;3.00;77.90;;;;;;5070796;28;20036;-54
2022/03/10 00:45:50;;;;;;;22.38;13.70;;;3.00;77.80;;;;;;5069630;28;20420;-56
2022/03/10 00:48:16;;;;;;;22.05;13.82;;;3.00;78.40;;;;;;5071379;28;20116;-53
2022/03/10 00:50:42;;;;;;;22.58;13.35;;;2.90;78.90;;;;;;5071106;28;20093;-55
2022/03/10 00:53:07;;;;;;;27.35;14.68;;;2.80;78.90;;;;;;5069726;28;20485;-53
2022/03/10 00:55:33;;;;;;;24.90;13.75;;;2.80;79.40;;;;;;5071369;28;20044;-53
2022/03/10 00:57:58;;;;;;;22.33;13.40;;;2.80;79.20;;;;;;5070995;28;20041;-54
2022/03/10 01:00:28;;;;;;;25.35;14.00;;;2.80;78.60;;;;;;5071087;28;20489;-52
2022/03/10 01:02:54;;;;;;;28.88;13.88;;;2.90;78.90;;;;;;5074856;28;20062;-53
2022/03/10 01:05:19;;;;;;;22.63;13.45;;;2.80;79.30;;;;;;5074704;28;20041;-54
2022/03/10 01:07:45;;;;;;;22.38;13.80;;;2.90;78.80;;;;;;5073726;28;20047;-54
2022/03/10 01:10:12;;;;;;;23.33;14.13;;;2.90;78.60;;;;;;5048637;28;20072;-54
2022/03/10 01:12:41;;;;;;;21.88;13.27;;;2.90;77.70;;;;;;5074955;28;20119;-55
2022/03/10 01:15:26;;;;;;;28.52;14.20;;;2.90;77.90;;;;;;5074750;28;20037;-54
2022/03/10 01:17:53;;;;;;;25.10;14.25;;;2.90;77.70;;;;;;5074093;28;20116;-53
2022/03/10 01:20:21;;;;;;;25.65;13.20;;;2.90;77.80;;;;;;5074467;28;20072;-53
2022/03/10 01:22:47;;;;;;;25.20;14.68;;;2.90;78.00;;;;;;5074889;28;20033;-53
2022/03/10 01:25:13;;;;;;;22.35;13.15;;;2.90;78.30;;;;;;5074587;28;20094;-54
2022/03/10 01:27:38;;;;;;;25.00;12.73;;;2.80;79.10;;;;;;5074173;28;20392;-53
2022/03/10 01:30:07;;;;;;;22.60;12.77;;;2.80;78.70;;;;;;5073229;28;20492;-52
2022/03/10 01:32:34;;;;;;;28.60;13.55;;;2.70;78.30;;;;;;5074147;28;20058;-54
2022/03/10 01:35:01;;;;;;;22.02;12.45;;;2.70;78.20;;;;;;5074203;28;20127;-53
2022/03/10 01:37:27;;;;;;;24.90;13.65;;;2.70;78.40;;;;;;5074475;28;20079;-54
2022/03/10 01:39:53;;;;;;;25.42;13.75;;;2.70;78.70;;;;;;5074421;28;20075;-54
2022/03/10 01:42:18;;;;;;;23.65;14.10;;;2.70;79.00;;;;;;5056219;28;20439;-53
2022/03/10 01:44:44;;;;;;;23.33;13.52;;;2.60;79.30;;;;;;5073903;28;20041;-53
2022/03/10 01:47:10;;;;;;;21.38;13.15;;;2.50;79.80;;;;;;5074276;28;20040;-53
2022/03/10 01:49:37;;;;;;;24.42;13.52;;;2.50;80.20;;;;;;5074025;28;20033;-53
2022/03/10 01:52:04;;;;;;;24.67;14.13;;;2.40;80.40;;;;;;5074411;28;20040;-51
2022/03/10 01:54:30;;;;;;;22.42;13.48;;;2.40;80.70;;;;;;5074394;28;20112;-53
2022/03/10 01:56:56;;;;;;;21.80;13.20;;;2.40;81.00;;;;;;5073659;28;20041;-53
2022/03/10 01:59:21;;;;;;;25.38;13.45;;;2.40;81.60;;;;;;5074079;28;20032;-54
2022/03/10 02:01:47;;;;;;;25.40;14.45;;;2.40;81.10;;;;;;5073659;28;20078;-55
2022/03/10 02:04:13;;;;;;;26.38;14.52;;;2.30;82.00;;;;;;5074099;28;20037;-54
2022/03/10 02:06:39;;;;;;;24.77;14.32;;;2.30;82.00;;;;;;5073893;28;20381;-55
2022/03/10 02:11:50;;;;;;;25.02;13.52;;;2.30;82.00;;;;;;5073780;28;20178;-54
2022/03/10 02:19:51;;;;;;;24.23;13.07;;;2.30;81.40;;;;;;5073979;28;20468;-53
2022/03/10 02:22:18;;;;;;;24.42;13.90;;;2.30;81.20;;;;;;5072544;28;20539;-51
2022/03/10 02:24:44;;;;;;;25.75;15.07;;;2.30;80.70;;;;;;5073506;28;20048;-54
2022/03/10 02:27:27;;;;;;;28.25;14.73;;;2.30;80.40;;;;;;5073535;28;20169;-54
2022/03/10 02:29:59;;;;;;;21.65;13.77;;;2.40;80.80;;;;;;5073448;28;20044;-53
2022/03/10 02:32:25;;;;;;;24.15;13.70;;;2.30;81.20;;;;;;5073682;28;20400;-53
2022/03/10 02:34:51;;;;;;;25.10;14.48;;;2.30;80.70;;;;;;5073410;28;20048;-53
2022/03/10 02:37:16;;;;;;;28.33;15.30;;;2.30;80.90;;;;;;5073549;28;20529;-54
2022/03/10 02:39:44;;;;;;;24.50;14.02;;;2.30;81.30;;;;;;5073473;28;20040;-51
2022/03/10 02:42:12;;;;;;;24.25;13.48;;;2.20;81.30;;;;;;5073579;28;20063;-51
2022/03/10 02:44:42;;;;;;;26.77;14.75;;;2.30;81.10;;;;;;5071320;28;20072;-53
2022/03/10 02:47:08;;;;;;;26.13;13.82;;;2.30;81.10;;;;;;5053041;28;20108;-53
2022/03/10 02:49:34;;;;;;;23.73;14.25;;;2.30;81.20;;;;;;5053057;28;20467;-51
2022/03/10 02:52:02;;;;;;;21.90;13.00;;;2.30;81.40;;;;;;5069207;28;20036;-56
2022/03/10 02:54:27;;;;;;;24.00;14.55;;;2.40;80.60;;;;;;5073417;28;20086;-52
2022/03/10 02:56:53;;;;;;;27.50;14.27;;;2.30;80.80;;;;;;5072631;28;20492;-52
2022/03/10 02:59:18;;;;;;;25.20;14.35;;;2.40;81.20;;;;;;5073127;28;20032;-52
2022/03/10 03:01:44;;;;;;;26.95;13.90;;;2.40;80.70;;;;;;5072937;28;20045;-54
2022/03/10 03:04:09;;;;;;;27.20;14.93;;;2.40;80.30;;;;;;5072540;28;20037;-52
2022/03/10 03:06:35;;;;;;;28.58;14.55;;;2.40;79.80;;;;;;5054623;28;20090;-54
2022/03/10 03:09:00;;;;;;;23.65;13.77;;;2.40;80.00;;;;;;5072894;28;20051;-54
2022/03/10 03:11:26;;;;;;;23.90;13.57;;;2.40;79.70;;;;;;5072814;28;20044;-54
2022/03/10 03:13:51;;;;;;;26.55;14.60;;;2.40;79.40;;;;;;5072513;28;20040;-54
2022/03/10 03:16:17;;;;;;;25.88;13.93;;;2.40;79.70;;;;;;5072374;28;20565;-51
2022/03/10 03:18:43;;;;;;;26.02;14.27;;;2.40;80.30;;;;;;5072275;28;20041;-54
2022/03/10 03:21:09;;;;;;;32.30;14.93;;;2.40;80.60;;;;;;5072065;28;20032;-53
2022/03/10 03:23:34;;;;;;;28.02;14.70;;;2.30;81.10;;;;;;5072164;28;20049;-52
2022/03/10 03:26:00;;;;;;;26.30;13.68;;;2.20;81.40;;;;;;5072210;28;20040;-55
2022/03/10 03:28:25;;;;;;;25.52;14.50;;;2.20;82.10;;;;;;5072407;28;20036;-54
2022/03/10 03:30:51;;;;;;;26.08;14.32;;;2.20;82.40;;;;;;5072392;28;20040;-56
2022/03/10 03:33:17;;;;;;;30.20;15.00;;;2.10;81.70;;;;;;5071955;28;20043;-54
2022/03/10 03:35:42;;;;;;;25.58;13.38;;;2.10;81.50;;;;;;5072115;28;20041;-53
2022/03/10 03:38:08;;;;;;;26.38;14.30;;;2.10;81.60;;;;;;5072128;28;20047;-55
2022/03/10 03:40:34;;;;;;;27.33;13.95;;;2.10;81.40;;;;;;5072206;28;20044;-54
2022/03/10 03:43:00;;;;;;;27.13;15.85;;;2.20;81.50;;;;;;5072121;28;20059;-54
2022/03/10 03:45:26;;;;;;;22.67;14.00;;;2.20;82.10;;;;;;5061982;28;20036;-54
2022/03/10 03:47:53;;;;;;;24.15;13.57;;;2.20;81.50;;;;;;5057208;28;20488;-54
2022/03/10 03:50:18;;;;;;;26.65;14.77;;;2.30;81.10;;;;;;5062137;28;20124;-54
2022/03/10 03:52:44;;;;;;;24.67;14.82;;;2.20;81.10;;;;;;5057547;28;20127;-56
2022/03/10 03:55:10;;;;;;;24.55;15.07;;;2.20;81.00;;;;;;5063226;28;20048;-55
2022/03/10 03:57:36;;;;;;;25.92;15.50;;;2.20;81.10;;;;;;5071719;28;20044;-54
2022/03/10 04:00:03;;;;;;;26.10;15.38;;;2.20;81.30;;;;;;5053526;28;20493;-54
2022/03/10 04:02:31;;;;;;;26.55;14.77;;;2.10;81.40;;;;;;5071652;28;20098;-53
2022/03/10 04:04:56;;;;;;;30.50;15.05;;;2.20;81.60;;;;;;5071380;28;20040;-54
2022/03/10 04:07:22;;;;;;;27.55;14.90;;;2.10;81.80;;;;;;5064316;28;20036;-51
2022/03/10 04:09:48;;;;;;;29.73;15.65;;;2.10;82.10;;;;;;5050409;28;20048;-51
2022/03/10 04:12:14;;;;;;;26.70;15.52;;;2.00;82.40;;;;;;5033930;28;20041;-53
2022/03/10 04:14:40;;;;;;;29.35;15.48;;;2.00;82.70;;;;;;5059048;28;20417;-51
2022/03/10 04:17:05;;;;;;;26.98;15.50;;;1.90;83.30;;;;;;5051138;28;20044;-51
2022/03/10 04:19:31;;;;;;;27.65;14.60;;;1.90;83.90;;;;;;5071229;28;20040;-54
2022/03/10 04:21:57;;;;;;;26.55;15.75;;;1.80;84.60;;;;;;5071462;28;20047;-54
2022/03/10 04:24:23;;;;;;;28.67;15.15;;;1.70;84.80;;;;;;5069446;28;20040;-55
2022/03/10 04:26:48;;;;;;;29.88;16.23;;;1.70;85.00;;;;;;5065153;28;20031;-53
2022/03/10 04:29:14;;;;;;;27.42;15.38;;;1.60;85.10;;;;;;5071575;28;20155;-54
2022/03/10 04:31:41;;;;;;;24.48;14.88;;;1.60;85.60;;;;;;5071420;28;20036;-54
2022/03/10 04:34:06;;;;;;;25.25;14.68;;;1.60;85.80;;;;;;5059176;28;20067;-54
2022/03/10 04:36:32;;;;;;;28.33;15.50;;;1.60;86.10;;;;;;5069759;28;20532;-53
2022/03/10 04:38:58;;;;;;;27.92;15.90;;;1.50;86.80;;;;;;5071536;28;20047;-51
2022/03/10 04:41:23;;;;;;;26.33;15.60;;;1.50;86.50;;;;;;5053567;28;20558;-54
2022/03/10 04:43:49;;;;;;;25.67;15.45;;;1.50;86.80;;;;;;5071453;28;20124;-55
2022/03/10 04:46:14;;;;;;;26.63;15.63;;;1.50;87.00;;;;;;5069275;28;20037;-52
2022/03/10 04:48:40;;;;;;;27.65;16.35;;;1.50;87.20;;;;;;5058454;28;20036;-53
2022/03/10 04:51:06;;;;;;;27.90;16.08;;;1.50;87.30;;;;;;5071439;28;20037;-52
2022/03/10 04:53:31;;;;;;;28.42;16.15;;;1.50;87.60;;;;;;5071461;28;20040;-56
2022/03/10 04:56:29;;;;;;;26.08;15.38;;;1.50;88.00;;;;;;5083755;28;20104;-54
2022/03/10 04:58:55;;;;;;;32.50;15.82;;;1.50;87.80;;;;;;5071099;28;20054;-54
2022/03/10 05:01:21;;;;;;;30.85;15.60;;;1.50;87.50;;;;;;5071509;28;20115;-51
2022/03/10 05:03:46;;;;;;;27.33;15.30;;;1.50;87.10;;;;;;5070348;28;20520;-52
2022/03/10 05:06:12;;;;;;;30.00;16.48;;;1.50;87.10;;;;;;5070005;28;20082;-53
2022/03/10 05:08:37;;;;;;;29.15;16.02;;;1.50;87.40;;;;;;5071156;28;20405;-52
2022/03/10 05:11:03;;;;;;;25.88;15.63;;;1.50;87.60;;;;;;5071115;28;20090;-51
2022/03/10 05:13:29;;;;;;;31.92;16.17;;;1.50;87.50;;;;;;5053116;28;20075;-51
2022/03/10 05:15:55;;;;;;;31.23;16.10;;;1.50;87.80;;;;;;5063124;28;20069;-55
2022/03/10 05:18:21;;;;;;;27.77;16.15;;;1.50;88.50;;;;;;5052496;28;20045;-52
2022/03/10 05:20:46;;;;;;;24.88;14.68;;;1.50;88.50;;;;;;5062013;28;20373;-56
2022/03/10 05:23:12;;;;;;;28.35;15.68;;;1.50;88.40;;;;;;5071068;28;20656;-52
2022/03/10 05:25:40;;;;;;;27.10;14.68;;;1.50;87.80;;;;;;5070750;28;20036;-54
2022/03/10 05:28:11;;;;;;;29.13;15.35;;;1.50;87.70;;;;;;5070900;28;20043;-54
2022/03/10 05:30:36;;;;;;;26.52;15.25;;;1.50;87.60;;;;;;5052615;28;20032;-54
2022/03/10 05:33:02;;;;;;;27.65;15.65;;;1.60;87.30;;;;;;5068563;28;20036;-54
2022/03/10 05:35:29;;;;;;;29.80;15.77;;;1.60;87.30;;;;;;5061469;28;20036;-51
2022/03/10 05:38:36;;;;;;;25.15;14.90;;;1.60;87.20;;;;;;5069452;28;20095;-54
2022/03/10 05:41:33;;;;;;;28.17;15.20;;;1.60;87.30;;;;;;5041374;28;20045;-56
2022/03/10 05:43:59;;;;;;;29.58;16.15;;;1.60;87.20;;;;;;5054205;28;20051;-57
2022/03/10 05:46:25;;;;;;;28.48;15.77;;;1.60;87.50;;;;;;5070392;28;20040;-54
2022/03/10 05:48:50;;;;;;;27.35;15.15;;;1.60;87.20;;;;;;5055071;28;20047;-56
2022/03/10 05:51:16;;;;;;;26.45;14.88;;;1.60;87.60;;;;;;5067091;28;20048;-55
2022/03/10 05:53:42;;;;;;;26.80;14.80;;;1.60;87.70;;;;;;5066136;28;20040;-55
2022/03/10 05:56:08;;;;;;;25.52;15.40;;;1.60;87.80;;;;;;5072697;28;20108;-55
2022/03/10 05:58:33;;;;;;;28.63;14.82;;;1.60;87.70;;;;;;5074269;28;20044;-55
2022/03/10 06:00:59;;;;;;;25.83;15.07;;;1.60;87.00;;;;;;5072810;28;20040;-54
2022/03/10 06:03:24;;;;;;;23.95;13.88;;;1.60;86.00;;;;;;5074067;28;20090;-53
2022/03/10 06:05:50;;;;;;;24.45;14.63;;;1.60;85.90;;;;;;5073043;28;20036;-55
2022/03/10 06:08:15;;;;;;;26.40;14.75;;;1.60;86.00;;;;;;5062008;28;20044;-53
2022/03/10 06:10:41;;;;;;;29.25;14.75;;;1.60;85.80;;;;;;5058769;28;20040;-55
2022/03/10 06:13:07;;;;;;;26.10;14.73;;;1.60;86.20;;;;;;5045541;28;20043;-54
2022/03/10 06:15:33;;;;;;;26.50;13.95;;;1.60;86.70;;;;;;5062908;28;20075;-53
2022/03/10 06:17:58;;;;;;;25.77;14.65;;;1.50;87.10;;;;;;5058232;28;20386;-54
2022/03/10 06:20:25;;;;;;;26.48;14.48;;;1.50;87.50;;;;;;5063896;28;20041;-54
2022/03/10 06:22:51;;;;;;;28.27;15.23;;;1.50;87.10;;;;;;5055699;28;20072;-53
2022/03/10 06:25:16;;;;;;;26.50;14.55;;;1.50;87.20;;;;;;5073387;28;20500;-55
2022/03/10 06:27:42;;;;;;;25.85;14.73;;;1.50;87.10;;;;;;5071833;28;20036;-54
2022/03/10 06:30:08;;;;;;;25.83;14.80;;;1.60;87.40;;;;;;5069269;28;20043;-52
2022/03/10 06:32:34;;;;;;;24.52;14.23;;;1.60;86.00;;;;;;5060965;28;20052;-54
2022/03/10 06:35:00;;;;;;;25.42;14.50;;;1.60;86.10;;;;;;5065374;28;20040;-55
2022/03/10 06:37:26;;;;;;;24.00;13.77;;;1.60;85.90;;;;;;5066346;28;20083;-55
2022/03/10 06:39:52;;;;;;;25.67;14.15;;;1.70;85.30;;;;;;5068499;28;20102;-55
2022/03/10 06:42:18;;;;;;;25.13;14.13;;;1.70;84.90;;;;;;5064488;28;20048;-55
2022/03/10 06:44:44;;;;;;;23.85;14.15;;;1.80;85.00;;;;;;5065573;28;20520;-55
2022/03/10 06:47:10;;;;;;;26.50;13.27;;;1.80;84.60;;;;;;5059345;28;20037;-55
2022/03/10 06:49:35;;;;;;;26.33;14.07;;;1.80;84.80;;;;;;5061640;28;20043;-55
2022/03/10 06:52:02;;;;;;;29.65;14.52;;;1.90;84.90;;;;;;5070609;28;20041;-53
2022/03/10 06:54:27;;;;;;;28.58;14.98;;;1.90;85.30;;;;;;5064459;28;20048;-53
2022/03/10 06:56:53;;;;;;;28.25;14.65;;;1.90;85.90;;;;;;5071498;28;20043;-54
2022/03/10 06:59:19;;;;;;;29.40;13.88;;;1.90;86.20;;;;;;5063351;28;20032;-54
2022/03/10 07:01:44;;;;;;;32.28;15.13;;;1.90;86.70;;;;;;5067311;28;20115;-54
2022/03/10 07:04:10;;;;;;;24.95;13.93;;;1.90;87.20;;;;;;5052868;28;20044;-53
2022/03/10 07:06:36;;;;;;;28.13;14.85;;;1.90;87.50;;;;;;5057442;28;20035;-55
2022/03/10 07:09:02;;;;;;;26.15;14.05;;;1.90;87.90;;;;;;5064490;28;20182;-55
2022/03/10 07:11:28;;;;;;;27.45;15.13;;;2.00;86.70;;;;;;5071930;28;20128;-54
2022/03/10 07:13:54;;;;;;;26.58;14.32;;;2.10;87.40;;;;;;5072598;28;20115;-55
2022/03/10 07:16:19;;;;;;;25.55;14.55;;;2.20;87.60;;;;;;5072149;28;20472;-54
2022/03/10 07:18:50;;;;;;;27.05;14.88;;;2.20;87.70;;;;;;5063983;28;20040;-53
2022/03/10 07:21:20;;;;;;;26.27;13.27;;;2.30;87.50;;;;;;5070480;28;20066;-52
2022/03/10 07:23:45;;;;;;;27.98;14.57;;;2.30;87.50;;;;;;5072492;28;20044;-55
2022/03/10 07:26:12;;;;;;;23.90;13.68;;;2.40;87.10;;;;;;5052922;28;20040;-55
2022/03/10 07:28:38;;;;;;;24.75;13.98;;;2.50;87.00;;;;;;5068172;28;20036;-55
2022/03/10 07:31:03;;;;;;;27.17;14.48;;;2.50;86.90;;;;;;5062717;28;20079;-55
2022/03/10 07:33:29;;;;;;;28.88;14.25;;;2.60;86.90;;;;;;5047781;28;20041;-55
2022/03/10 07:35:55;;;;;;;27.33;14.50;;;2.80;85.60;;;;;;5056932;28;20554;-55
2022/03/10 07:38:21;;;;;;;28.02;13.35;;;3.00;85.10;;;;;;5059392;28;20044;-56
2022/03/10 07:40:46;;;;;;;26.42;14.00;;;3.10;84.70;;;;;;5046904;28;20033;-54
2022/03/10 07:43:12;;;;;;;24.27;14.43;;;3.30;84.80;;;;;;5072084;28;20045;-56
2022/03/10 07:45:37;;;;;;;26.63;14.38;;;3.50;83.70;;;;;;5071144;28;20025;-55
2022/03/10 07:48:04;;;;;;;29.75;14.77;;;3.60;83.20;;;;;;5071956;28;20389;-55
2022/03/10 07:50:29;;;;;;;25.10;13.95;;;3.80;82.20;;;;;;5072197;28;20043;-56
2022/03/10 07:52:55;;;;;;;25.95;13.98;;;3.90;82.70;;;;;;5071069;28;20036;-55
2022/03/10 07:55:20;;;;;;;27.20;13.35;;;4.10;82.80;;;;;;5062604;28;20516;-56
2022/03/10 07:57:46;;;;;;;23.17;14.10;;;4.20;81.20;;;;;;5070274;28;20032;-55
2022/03/10 08:00:12;;;;;;;24.77;13.60;;;4.40;79.80;;;;;;5051657;28;20045;-53
2022/03/10 08:02:37;;;;;;;25.10;12.93;;;4.60;79.40;;;;;;5061456;28;20052;-55
2022/03/10 08:05:04;;;;;;;29.13;14.68;;;4.70;78.50;;;;;;5055189;28;20041;-56
2022/03/10 08:07:32;;;;;;;24.50;15.10;;;4.90;76.10;;;;;;5061010;28;20028;-55
2022/03/10 08:09:59;;;;;;;22.45;13.20;;;5.10;76.50;;;;;;5057227;28;20052;-56
2022/03/10 08:12:29;;;;;;;29.17;16.13;;;5.30;77.70;;;;;;5069289;28;20044;-56
2022/03/10 08:14:55;;;;;;;23.55;14.27;;;5.40;75.70;;;;;;5071702;28;20051;-56
2022/03/10 08:17:20;;;;;;;22.80;13.63;;;5.60;73.20;;;;;;5071570;28;20119;-56
2022/03/10 08:19:46;;;;;;;22.52;12.45;;;5.80;73.20;;;;;;5053628;28;20042;-56
2022/03/10 08:22:14;;;;;;;21.38;13.02;;;6.00;72.50;;;;;;5071311;28;20041;-55
2022/03/10 08:24:41;;;;;;;23.30;13.57;;;6.10;72.40;;;;;;5071542;28;20072;-56
2022/03/10 08:27:07;;;;;;;19.88;11.90;;;6.20;72.00;;;;;;5071327;28;20037;-55
2022/03/10 08:29:33;;;;;;;22.80;12.52;;;6.40;71.10;;;;;;5071650;28;20086;-55
2022/03/10 08:31:58;;;;;;;24.08;13.25;;;6.50;70.20;;;;;;5071274;28;20488;-55
2022/03/10 08:34:24;;;;;;;24.23;12.63;;;6.70;67.60;;;;;;5071556;28;20556;-56
2022/03/10 08:36:49;;;;;;;24.80;13.60;;;6.80;68.40;;;;;;5071075;28;20419;-56
2022/03/10 08:39:16;;;;;;;22.38;13.27;;;6.80;68.40;;;;;;5071476;28;20400;-56
2022/03/10 08:41:42;;;;;;;21.95;13.05;;;7.00;67.50;;;;;;5063195;28;20048;-56
2022/03/10 08:44:08;;;;;;;23.17;12.60;;;7.10;67.50;;;;;;5051351;28;20041;-56
2022/03/10 08:46:33;;;;;;;22.58;13.13;;;7.20;67.50;;;;;;5063301;28;20131;-55
2022/03/10 08:49:00;;;;;;;24.98;12.13;;;7.30;66.40;;;;;;5067129;28;20484;-55
2022/03/10 08:51:26;;;;;;;21.95;12.73;;;7.40;66.90;;;;;;5068053;28;20443;-56
2022/03/10 08:53:51;;;;;;;22.27;12.40;;;7.50;67.00;;;;;;5060871;28;20049;-56
2022/03/10 08:56:17;;;;;;;20.60;12.52;;;7.60;65.80;;;;;;5050638;28;20531;-56
2022/03/10 08:58:42;;;;;;;19.88;12.05;;;7.70;65.60;;;;;;5051396;28;20044;-56
2022/03/10 09:01:08;;;;;;;20.45;12.23;;;7.80;64.80;;;;;;5069919;28;20041;-56
2022/03/10 09:03:34;;;;;;;26.13;13.63;;;7.90;64.10;;;;;;5070801;28;20098;-56
2022/03/10 09:05:59;;;;;;;24.73;13.25;;;8.00;63.70;;;;;;5053218;28;20039;-56
2022/03/10 09:08:25;;;;;;;23.65;13.10;;;8.20;64.10;;;;;;5071220;28;20036;-55
2022/03/10 09:10:50;;;;;;;24.25;13.77;;;8.20;63.70;;;;;;5070155;28;20040;-56
2022/03/10 09:13:16;;;;;;;22.70;13.68;;;8.30;62.50;;;;;;5071149;28;20605;-56
2022/03/10 09:15:45;;;;;;;23.60;13.13;;;8.40;63.60;;;;;;5069986;28;20036;-56
2022/03/10 09:18:13;;;;;;;22.10;13.27;;;8.40;63.00;;;;;;5062107;28;20033;-56
2022/03/10 09:20:38;;;;;;;24.58;13.80;;;8.50;62.70;;;;;;5065833;28;20068;-56
2022/03/10 09:23:04;;;;;;;21.77;13.40;;;8.70;61.90;;;;;;5061810;28;20049;-56
2022/03/10 09:25:29;;;;;;;23.20;12.88;;;8.70;63.20;;;;;;5065090;28;20040;-56
2022/03/10 09:27:55;;;;;;;24.90;13.30;;;8.80;62.30;;;;;;5074127;28;20036;-56
2022/03/10 09:30:21;;;;;;;22.05;13.23;;;8.80;62.10;;;;;;5074426;28;20044;-56
2022/03/10 09:32:47;;;;;;;24.88;13.32;;;8.90;62.20;;;;;;5074683;28;20041;-56
2022/03/10 09:35:15;;;;;;;25.75;14.23;;;9.00;61.30;;;;;;5072903;28;20044;-56
2022/03/10 09:37:41;;;;;;;26.83;13.65;;;9.10;61.20;;;;;;5074088;28;20504;-56
2022/03/10 09:40:08;;;;;;;22.85;13.27;;;9.20;61.00;;;;;;5074243;28;20230;-57
2022/03/10 09:42:34;;;;;;;21.80;13.50;;;9.20;60.40;;;;;;5074405;28;20047;-56
2022/03/10 09:45:03;;;;;;;23.85;13.90;;;9.40;59.10;;;;;;5073601;28;20043;-55
2022/03/10 09:47:29;;;;;;;22.80;13.75;;;9.50;58.80;;;;;;5062888;28;20074;-56
2022/03/10 09:49:54;;;;;;;25.02;13.35;;;9.60;58.70;;;;;;5063366;28;20493;-54
2022/03/10 09:52:22;;;;;;;22.17;13.13;;;9.70;58.20;;;;;;5069244;28;20035;-54
2022/03/10 09:54:48;;;;;;;23.35;13.73;;;9.80;58.40;;;;;;5066869;28;20523;-56
2022/03/10 09:57:15;;;;;;;22.20;13.73;;;9.90;55.50;;;;;;5071049;28;20064;-56
2022/03/10 09:59:48;;;;;;;23.42;13.98;;;10.00;56.70;;;;;;5074260;28;20086;-57
2022/03/10 10:02:13;;;;;;;24.13;14.05;;;10.20;56.20;;;;;;5072767;28;20079;-56
2022/03/10 10:04:41;;;;;;;23.20;14.82;;;10.30;56.80;;;;;;5073911;28;20064;-56
2022/03/10 10:07:08;;;;;;;26.15;14.63;;;10.40;55.50;;;;;;5071271;28;20072;-57
2022/03/10 10:09:47;;;;;;;24.65;14.95;;;10.50;55.90;;;;;;5065722;28;20043;-56
2022/03/10 10:12:14;;;;;;;25.00;14.70;;;10.60;56.70;;;;;;5073946;28;20040;-56
2022/03/10 10:14:43;;;;;;;27.48;14.48;;;10.70;56.60;;;;;;5073736;28;20412;-58
2022/03/10 10:17:10;;;;;;;23.85;14.18;;;10.80;55.70;;;;;;5073570;28;20033;-57
2022/03/10 10:19:36;;;;;;;27.33;14.88;;;10.90;54.70;;;;;;5073260;28;20044;-56
2022/03/10 10:22:16;;;;;;;24.42;14.05;;;11.00;54.70;;;;;;5069543;28;20035;-57
2022/03/10 10:24:49;;;;;;;22.10;14.10;;;11.10;54.50;;;;;;5063020;28;20040;-57
2022/03/10 10:27:17;;;;;;;23.02;14.23;;;11.10;54.40;;;;;;5064553;28;20507;-57
2022/03/10 10:29:53;;;;;;;26.98;15.15;;;11.20;54.60;;;;;;5073516;28;20360;-56
2022/03/10 10:32:44;;;;;;;24.33;14.95;;;11.30;53.10;;;;;;5063894;28;20080;-57
2022/03/10 10:35:13;;;;;;;24.95;15.98;;;11.40;51.50;;;;;;5052681;28;20041;-56
2022/03/10 10:37:42;;;;;;;29.70;15.95;;;11.30;51.60;;;;;;5053270;28;20043;-56
2022/03/10 10:40:09;;;;;;;27.73;16.05;;;11.40;52.10;;;;;;5053266;28;20041;-56
2022/03/10 10:42:38;;;;;;;24.95;15.63;;;11.40;52.60;;;;;;5045772;28;20044;-56
2022/03/10 10:45:26;;;;;;;23.65;15.60;;;11.40;52.20;;;;;;5068812;28;20058;-56
2022/03/10 10:48:04;;;;;;;24.98;15.43;;;11.50;52.40;;;;;;5072972;28;20407;-57
2022/03/10 10:50:35;;;;;;;25.23;15.07;;;11.60;51.80;;;;;;5072416;28;20618;-57
2022/03/10 10:53:01;;;;;;;29.42;16.98;;;11.60;51.10;;;;;;5061952;28;20400;-57
2022/03/10 10:55:38;;;;;;;28.00;16.92;;;11.70;51.50;;;;;;5072275;28;20133;-57
2022/03/10 10:58:16;;;;;;;25.98;15.82;;;11.70;51.00;;;;;;5071493;28;20044;-57
2022/03/10 11:00:46;;;;;;;28.95;16.75;;;11.80;51.50;;;;;;5069922;28;20047;-57
2022/03/10 11:03:22;;;;;;;31.35;16.30;;;11.90;51.20;;;;;;5073091;28;20044;-56
2022/03/10 11:05:48;;;;;;;30.23;17.20;;;12.00;51.50;;;;;;5052913;28;20045;-57
2022/03/10 11:08:17;;;;;;;29.27;16.48;;;12.00;50.40;;;;;;5053124;28;20083;-56
2022/03/10 11:10:43;;;;;;;26.17;16.15;;;12.10;51.10;;;;;;5053588;28;20114;-57
2022/03/10 11:13:08;;;;;;;26.95;17.50;;;12.10;50.30;;;;;;5053001;28;20488;-55
2022/03/10 11:15:35;;;;;;;26.88;16.65;;;12.10;51.10;;;;;;5053002;28;20079;-56
2022/03/10 11:18:03;;;;;;;28.98;16.73;;;12.20;51.50;;;;;;5065431;28;20411;-57
2022/03/10 11:20:31;;;;;;;28.17;16.85;;;12.30;51.90;;;;;;5072838;28;20036;-57
2022/03/10 11:23:52;;;;;;;30.17;18.38;;;12.40;51.00;;;;;;5072882;28;20039;-57
2022/03/10 11:26:29;;;;;;;28.38;17.10;;;12.50;50.60;;;;;;5047887;28;20114;-57
2022/03/10 11:28:58;;;;;;;29.60;16.50;;;12.50;50.20;;;;;;5072776;28;20090;-55
2022/03/10 11:31:28;;;;;;;25.65;16.38;;;12.50;51.20;;;;;;5072506;28;20078;-57
2022/03/10 11:33:54;;;;;;;28.83;16.90;;;12.60;51.00;;;;;;5072604;28;20583;-57
2022/03/10 11:36:52;;;;;;;28.55;17.77;;;12.80;48.80;;;;;;5073225;28;20119;-58
2022/03/10 11:39:23;;;;;;;32.55;17.52;;;12.70;50.40;;;;;;5072381;28;20059;-56
2022/03/10 11:41:53;;;;;;;29.95;18.13;;;12.80;49.70;;;;;;5034455;28;20045;-57
2022/03/10 11:44:22;;;;;;;29.20;17.70;;;12.90;49.40;;;;;;5067373;28;20147;-57
2022/03/10 11:46:57;;;;;;;28.42;18.33;;;13.00;50.50;;;;;;5071337;28;20032;-57
2022/03/10 11:49:27;;;;;;;31.88;18.10;;;13.10;49.50;;;;;;5072650;28;20036;-57
2022/03/10 11:51:57;;;;;;;29.50;17.60;;;13.20;50.50;;;;;;5053915;28;20131;-57
2022/03/10 11:54:32;;;;;;;28.98;18.00;;;13.30;49.70;;;;;;5067084;28;20048;-57
2022/03/10 11:57:03;;;;;;;31.70;17.38;;;13.30;48.60;;;;;;5071593;28;20044;-57
2022/03/10 11:59:32;;;;;;;28.20;17.77;;;13.40;49.60;;;;;;5071764;28;20040;-57
2022/03/10 12:01:58;;;;;;;27.02;16.85;;;13.40;50.30;;;;;;5072020;28;20044;-57
2022/03/10 12:04:54;;;;;;;27.85;17.70;;;13.50;48.70;;;;;;5072151;28;20047;-57
2022/03/10 12:07:27;;;;;;;28.17;17.73;;;13.50;48.80;;;;;;5070197;28;20041;-56
2022/03/10 12:10:11;;;;;;;31.25;18.30;;;13.60;48.60;;;;;;5069751;28;20124;-57
2022/03/10 12:12:48;;;;;;;29.77;17.67;;;13.60;49.80;;;;;;5071957;28;20070;-57
2022/03/10 12:15:30;;;;;;;29.75;17.23;;;13.70;49.40;;;;;;5071391;28;20067;-57
2022/03/10 12:17:56;;;;;;;29.92;17.95;;;13.80;49.60;;;;;;5071185;28;20040;-57
2022/03/10 12:20:23;;;;;;;28.83;17.50;;;13.80;48.50;;;;;;5071414;28;20041;-58
2022/03/10 12:23:03;;;;;;;30.75;18.00;;;13.90;48.00;;;;;;5071976;28;20047;-57
2022/03/10 12:25:39;;;;;;;31.35;17.70;;;13.90;49.00;;;;;;5071652;28;20081;-57
2022/03/10 12:28:05;;;;;;;28.52;17.30;;;13.90;48.70;;;;;;5069973;28;20148;-57
2022/03/10 12:30:31;;;;;;;27.35;17.38;;;14.00;47.80;;;;;;5071440;28;20044;-57
2022/03/10 12:32:58;;;;;;;31.15;17.92;;;14.00;48.10;;;;;;5053535;28;20040;-57
2022/03/10 12:35:30;;;;;;;28.15;17.45;;;14.00;48.20;;;;;;5072005;28;20508;-57
2022/03/10 12:37:55;;;;;;;28.95;17.67;;;14.00;48.40;;;;;;5071411;28;20041;-57
2022/03/10 12:40:28;;;;;;;27.77;16.40;;;14.00;48.00;;;;;;5071465;28;20063;-57
2022/03/10 12:43:03;;;;;;;;;;;14.10;47.70;;;;;;5071868;28;20385;-56
2022/03/10 12:45:30;;;;;;;31.92;17.83;;;14.10;47.50;;;;;;5051451;28;19917;-57
2022/03/10 12:48:09;;;;;;;29.60;17.08;;;14.10;47.70;;;;;;5049983;28;20049;-57